Fort Madison, IA

7:30 AM CST on February 07, 2016 (GMT -0600)
Fort Madison Municipal

Weather History for KFSW - October, 2011

Change the Weather History Date:

Sunday, October 16, 2011

  Actual Average Record
Temperature  
Mean Temperature 58 °F -  
Max Temperature 64 °F 65 °F 88 °F (1963)
Min Temperature 51 °F 43 °F 29 °F (1976)
Degree Days  
Heating Degree Days 8    
Growing Degree Days 8 (Base 50)    
Moisture  
Dew Point 39 °F    
Average Humidity 52    
Maximum Humidity 67    
Minimum Humidity 32    
Precipitation  
Precipitation 0.00 in - - ()
Sea Level Pressure  
Sea Level Pressure 29.88 in    
Wind  
Wind Speed 9 mph (West)    
Max Wind Speed 18 mph    
Max Gust Speed 26 mph    
Visibility 10 miles    
Events      
Averages and records for this station are not official NWS values.
T = Trace of Precipitation, MM = Missing Value Source: NWS Daily Summary

Daily Weather History Graph

Daily Weather History Graph

Search for Another Location

Airport or City:

Trip Planner

Search our weather history database for the weather conditions in past years. The results will help you decide how hot, cold, wet, or windy it might be!

Date:

Astronomy

Oct. 16, 2011 Rise Set
Actual Time 7:17 AM CDT 6:23 PM CDT
Civil Twilight 6:49 AM CDT 6:51 PM CDT
Nautical Twilight 6:17 AM CDT 7:23 PM CDT
Astronomical Twilight 5:46 AM CDT 7:54 PM CDT
Moon 9:08 PM CDT (10/16) 11:35 AM CDT (10/16)
Length of Visible Light 12h 01m
Length of Day
11h 06m
Waning Gibbous, 82% of the Moon is Illuminated
Oct 16
Waning Gibbous
Oct 19
Last Quarter
Oct 26
New
Nov 2
First Quarter
Nov 10
Full

Hourly Weather History & Observations

Time (CDT) Temp. Windchill Dew Point Humidity Pressure Visibility Wind Dir Wind Speed Gust Speed Precip Events Conditions
12:35 AM 53.6 °F - 37.4 °F 54% 29.85 in 10.0 mi South 9.2 mph - N/A   Clear
12:55 AM 53.6 °F - 37.4 °F 54% 29.84 in 10.0 mi South 9.2 mph - N/A   Clear
1:15 AM 53.6 °F - 37.4 °F 54% 29.83 in 10.0 mi South 9.2 mph - N/A   Clear
1:55 AM 55.4 °F - 37.4 °F 51% 29.80 in 10.0 mi South 11.5 mph - N/A   Clear
2:15 AM 53.6 °F - 39.2 °F 58% 29.79 in 10.0 mi South 10.4 mph - N/A   Clear
2:35 AM 53.6 °F - 39.2 °F 58% 29.79 in 10.0 mi South 9.2 mph - N/A   Clear
2:55 AM 53.6 °F - 39.2 °F 58% 29.79 in 10.0 mi SSW 10.4 mph 16.1 mph N/A   Clear
3:15 AM 55.4 °F - 41.0 °F 58% 29.79 in 10.0 mi SSW 8.1 mph - N/A   Clear
3:55 AM 57.2 °F - 42.8 °F 59% 29.78 in 10.0 mi SSW 10.4 mph - N/A   Clear
4:15 AM 57.2 °F - 42.8 °F 59% 29.77 in 10.0 mi SSW 11.5 mph 17.3 mph N/A   Clear
4:35 AM 57.2 °F - 42.8 °F 59% 29.78 in 10.0 mi SSW 10.4 mph - N/A   Clear
4:55 AM 57.2 °F - 42.8 °F 59% 29.79 in 10.0 mi SW 6.9 mph - N/A   Clear
5:15 AM 55.4 °F - 42.8 °F 63% 29.78 in 10.0 mi SW 8.1 mph - N/A   Clear
5:35 AM 55.4 °F - 42.8 °F 63% 29.77 in 10.0 mi SSW 6.9 mph - N/A   Clear
5:55 AM 55.4 °F - 42.8 °F 63% 29.79 in 10.0 mi SW 9.2 mph - N/A   Clear
6:15 AM 55.4 °F - 42.8 °F 63% 29.79 in 10.0 mi SW 6.9 mph - N/A   Clear
6:35 AM 55.4 °F - 42.8 °F 63% 29.79 in 10.0 mi Calm Calm - N/A   Clear
6:55 AM 55.4 °F - 42.8 °F 63% 29.78 in 10.0 mi Calm Calm - N/A   Clear
7:15 AM 55.4 °F - 44.6 °F 67% 29.84 in 10.0 mi West 5.8 mph - N/A   Clear
7:35 AM 55.4 °F - 44.6 °F 67% 29.79 in 10.0 mi Calm Calm - N/A   Clear
7:55 AM 55.4 °F - 44.6 °F 67% 29.83 in 10.0 mi West 9.2 mph - N/A   Clear
8:15 AM 55.4 °F - 44.6 °F 67% 29.83 in 10.0 mi WSW 5.8 mph - N/A   Clear
8:35 AM 57.2 °F - 44.6 °F 63% 29.81 in 10.0 mi WSW 4.6 mph - N/A   Clear
8:55 AM 57.2 °F - 44.6 °F 63% 29.86 in 10.0 mi WNW 8.1 mph - N/A   Clear
9:15 AM 57.2 °F - 42.8 °F 59% 29.82 in 10.0 mi North 12.7 mph 16.1 mph N/A   Clear
9:35 AM 57.2 °F - 41.0 °F 55% 29.84 in 10.0 mi North 18.4 mph 21.9 mph N/A   Clear
9:55 AM 55.4 °F - 39.2 °F 54% 29.86 in 10.0 mi NNW 11.5 mph 21.9 mph N/A   Clear
10:15 AM 55.4 °F - 41.0 °F 58% 29.92 in 10.0 mi NNW 18.4 mph 26.5 mph N/A   Clear
10:35 AM 53.6 °F - 41.0 °F 62% 29.91 in 10.0 mi North 17.3 mph - N/A   Clear
10:55 AM 55.4 °F - 42.8 °F 63% 29.94 in 10.0 mi NNW 13.8 mph 17.3 mph N/A   Clear
11:15 AM 55.4 °F - 42.8 °F 63% 29.90 in 10.0 mi North 8.1 mph - N/A   Clear
11:35 AM 57.2 °F - 41.0 °F 55% 29.92 in 10.0 mi NNW 12.7 mph 18.4 mph N/A   Clear
11:55 AM 57.2 °F - 39.2 °F 51% 29.92 in 10.0 mi NNW 15.0 mph - N/A   Clear
12:15 PM 59.0 °F - 39.2 °F 48% 29.90 in 10.0 mi North 13.8 mph 17.3 mph N/A   Clear
12:35 PM 60.8 °F - 39.2 °F 45% 29.93 in 10.0 mi NNW 10.4 mph - N/A   Clear
12:55 PM 62.6 °F - 35.6 °F 37% 29.92 in 10.0 mi NW 11.5 mph 20.7 mph N/A   Clear
1:15 PM 64.4 °F - 33.8 °F 32% 29.92 in 10.0 mi NW 18.4 mph 25.3 mph N/A   Clear
1:35 PM 62.6 °F - 35.6 °F 37% 29.94 in 10.0 mi NNW 17.3 mph 23.0 mph N/A   Clear
1:55 PM 60.8 °F - 35.6 °F 39% 29.94 in 10.0 mi NW 15.0 mph 21.9 mph N/A   Clear
2:15 PM 62.6 °F - 35.6 °F 37% 29.94 in 10.0 mi NW 12.7 mph 17.3 mph N/A   Clear
2:35 PM 60.8 °F - 33.8 °F 36% 29.94 in 10.0 mi NW 16.1 mph 20.7 mph N/A   Clear
2:55 PM 60.8 °F - 33.8 °F 36% 29.94 in 10.0 mi NW 15.0 mph 18.4 mph N/A   Clear
3:15 PM 60.8 °F - 33.8 °F 36% 29.95 in 10.0 mi NW 13.8 mph 19.6 mph N/A   Clear
3:35 PM 59.0 °F - 33.8 °F 39% 29.95 in 10.0 mi NW 13.8 mph - N/A   Clear
3:55 PM 59.0 °F - 33.8 °F 39% 29.95 in 10.0 mi NW 12.7 mph 18.4 mph N/A   Clear
4:15 PM 59.0 °F - 33.8 °F 39% 29.96 in 10.0 mi NW 11.5 mph - N/A   Clear
4:35 PM 59.0 °F - 33.8 °F 39% 29.96 in 10.0 mi NW 12.7 mph 18.4 mph N/A   Clear
4:55 PM 57.2 °F - 33.8 °F 41% 29.96 in 10.0 mi NW 12.7 mph - N/A   Clear
5:15 PM 57.2 °F - 35.6 °F 44% 29.95 in 10.0 mi WNW 9.2 mph - N/A   Clear
5:35 PM 57.2 °F - 35.6 °F 44% 29.96 in 10.0 mi WNW 6.9 mph - N/A   Clear
5:55 PM 57.2 °F - 35.6 °F 44% 29.95 in 10.0 mi West 5.8 mph - N/A   Clear
6:15 PM 55.4 °F - 35.6 °F 47% 29.96 in 10.0 mi West 3.5 mph - N/A   Clear
6:35 PM 55.4 °F - 35.6 °F 47% 29.96 in 10.0 mi WSW 4.6 mph - N/A   Clear
6:55 PM 55.4 °F - 35.6 °F 47% 29.96 in 10.0 mi West 4.6 mph - N/A   Clear
7:15 PM 53.6 °F - 35.6 °F 51% 29.97 in 10.0 mi West 4.6 mph - N/A   Clear
7:55 PM 53.6 °F - 35.6 °F 51% 29.97 in 10.0 mi WSW 4.6 mph - N/A   Clear
8:15 PM 53.6 °F - 35.6 °F 51% 29.97 in 10.0 mi WSW 3.5 mph - N/A   Clear
8:35 PM 51.8 °F - 35.6 °F 54% 29.97 in 10.0 mi WSW 4.6 mph - N/A   Clear
8:55 PM 51.8 °F - 35.6 °F 54% 29.98 in 10.0 mi Calm Calm - N/A   Clear
9:15 PM 51.8 °F - 33.8 °F 50% 29.99 in 10.0 mi West 3.5 mph - N/A   Clear
9:35 PM 51.8 °F - 33.8 °F 50% 29.99 in 10.0 mi West 4.6 mph - N/A   Clear
9:55 PM 50.0 °F - 35.6 °F 58% 29.99 in 10.0 mi WSW 4.6 mph - N/A   Clear
10:15 PM 50.0 °F - 33.8 °F 54% 30.00 in 10.0 mi West 4.6 mph - N/A   Clear
10:35 PM 48.2 °F - 35.6 °F 62% 30.00 in 10.0 mi West 5.8 mph - N/A   Clear
10:55 PM 48.2 °F - 35.6 °F 62% 30.00 in 10.0 mi West 6.9 mph - N/A   Clear
11:15 PM 46.4 °F 42.9 °F 35.6 °F 66% 30.00 in 10.0 mi West 6.9 mph - N/A   Clear
11:35 PM 46.4 °F 43.5 °F 35.6 °F 66% 30.00 in 10.0 mi West 5.8 mph - N/A   Clear
11:55 PM 46.4 °F 42.9 °F 35.6 °F 66% 30.01 in 10.0 mi West 6.9 mph - N/A   Clear